Time;durP1;ratioP1;P1;durP2;ratioP2;P2;SDS_P1;SDS_P2;PMS_P1;PMS_P2;Temp;Humidity;BMP_temperature;BMP_pressure;BME280_temperature;BME280_humidity;BME280_pressure;Samples;Min_cycle;Max_cycle;Signal;HPM_P1;HPM_P2
2023/03/13 00:02:00;;;;;;;4.68;1.90;;;15.90;54.00;;;;;;6258347;28;20446;-73
2023/03/13 00:05:01;;;;;;;3.33;1.92;;;15.80;54.00;;;;;;6257439;28;20029;-74
2023/03/13 00:08:03;;;;;;;3.30;1.85;;;15.80;54.00;;;;;;6257508;28;20405;-75
2023/03/13 00:11:06;;;;;;;2.90;1.92;;;15.70;54.10;;;;;;6276601;28;20432;-75
2023/03/13 00:14:07;;;;;;;6.72;2.10;;;15.70;54.10;;;;;;6275981;28;20039;-76
2023/03/13 00:17:08;;;;;;;7.32;2.20;;;15.70;54.10;;;;;;6258015;28;20067;-73
2023/03/13 00:20:10;;;;;;;2.72;1.67;;;15.80;54.70;;;;;;6258519;28;20029;-74
2023/03/13 00:23:11;;;;;;;3.20;1.77;;;15.70;54.10;;;;;;6276155;28;20408;-75
2023/03/13 00:26:14;;;;;;;4.68;2.35;;;15.70;54.10;;;;;;6241885;28;20031;-73
2023/03/13 00:29:15;;;;;;;2.70;1.73;;;15.70;54.10;;;;;;6275015;28;20025;-76
2023/03/13 00:32:16;;;;;;;3.97;1.77;;;15.70;54.20;;;;;;6275272;28;20025;-75
2023/03/13 00:35:17;;;;;;;8.43;1.90;;;15.70;54.20;;;;;;6256710;28;20040;-76
2023/03/13 00:38:18;;;;;;;3.10;1.98;;;15.70;54.80;;;;;;6257217;28;20037;-75
2023/03/13 00:41:26;;;;;;;5.10;2.22;;;15.80;54.20;;;;;;6257561;28;20064;-73
2023/03/13 00:44:27;;;;;;;5.57;2.15;;;15.90;54.10;;;;;;6275074;28;20035;-75
2023/03/13 00:47:28;;;;;;;6.55;2.15;;;15.90;54.00;;;;;;6256817;28;20428;-76
2023/03/13 00:50:29;;;;;;;4.35;1.83;;;16.00;53.90;;;;;;6240749;28;20561;-74
2023/03/13 00:53:31;;;;;;;4.78;1.80;;;16.00;53.80;;;;;;6241160;28;20035;-73
2023/03/13 00:56:32;;;;;;;5.00;2.22;;;16.00;53.60;;;;;;6257464;28;20025;-76
2023/03/13 00:59:32;;;;;;;4.68;2.03;;;16.10;53.70;;;;;;6256738;28;20025;-75
2023/03/13 01:02:33;;;;;;;4.10;2.20;;;16.10;53.70;;;;;;6257142;28;20036;-75
2023/03/13 01:05:34;;;;;;;2.53;1.77;;;16.10;53.70;;;;;;6256824;28;20048;-76
2023/03/13 01:08:35;;;;;;;3.72;1.50;;;16.10;53.70;;;;;;6256094;28;20029;-72
2023/03/13 01:11:38;;;;;;;4.97;1.73;;;16.10;54.30;;;;;;6256618;28;20087;-72
2023/03/13 01:14:40;;;;;;;2.75;1.10;;;16.10;53.70;;;;;;6256263;28;20037;-76
2023/03/13 01:17:43;;;;;;;3.78;1.38;;;16.10;53.40;;;;;;6256244;28;20100;-73
2023/03/13 01:20:44;;;;;;;2.85;1.60;;;16.00;53.20;;;;;;6240277;28;20041;-77
2023/03/13 01:23:45;;;;;;;3.15;1.42;;;16.00;53.10;;;;;;6256338;28;20111;-75
2023/03/13 01:26:46;;;;;;;3.75;2.13;;;16.10;53.10;;;;;;6255380;28;20037;-75
2023/03/13 01:29:49;;;;;;;4.93;2.05;;;16.10;53.10;;;;;;6252911;28;20125;-74
2023/03/13 01:32:50;;;;;;;7.32;2.17;;;16.10;53.20;;;;;;6244638;28;20049;-74
2023/03/13 01:35:59;;;;;;;6.05;1.77;;;16.10;53.20;;;;;;6231146;28;20681;-77
2023/03/13 01:39:00;;;;;;;7.15;2.45;;;16.20;53.30;;;;;;6249185;28;20026;-75
2023/03/13 01:42:03;;;;;;;5.78;2.47;;;16.20;53.40;;;;;;6231060;28;20390;-76
2023/03/13 01:45:05;;;;;;;4.00;2.17;;;16.20;53.40;;;;;;6239399;28;20075;-75
2023/03/13 01:48:06;;;;;;;3.88;2.10;;;16.20;53.50;;;;;;6254254;28;20060;-77
2023/03/13 01:51:41;;;;;;;7.68;2.05;;;16.10;53.70;;;;;;6255587;28;20032;-73
2023/03/13 01:55:16;;;;;;;6.75;2.58;;;16.00;54.60;;;;;;6256452;28;20057;-74
2023/03/13 01:58:21;;;;;;;4.80;2.28;;;16.00;54.70;;;;;;6124818;29;20048;-75
2023/03/13 02:01:22;;;;;;;2.28;1.70;;;15.80;55.10;;;;;;6109461;29;20042;-75
2023/03/13 02:04:26;;;;;;;6.35;2.17;;;15.70;55.60;;;;;;6110120;29;20039;-76
2023/03/13 02:07:38;;;;;;;6.10;2.58;;;15.60;55.80;;;;;;6128252;29;20114;-74
2023/03/13 02:10:48;;;;;;;4.75;2.30;;;15.50;56.00;;;;;;6113785;29;20031;-75
2023/03/13 02:13:50;;;;;;;4.15;2.00;;;15.60;56.30;;;;;;6126447;29;20191;-76
2023/03/13 02:16:52;;;;;;;6.60;2.40;;;15.50;56.30;;;;;;6109405;29;20130;-75
2023/03/13 02:19:53;;;;;;;8.27;2.45;;;15.50;56.40;;;;;;6109309;29;20503;-73
2023/03/13 02:23:09;;;;;;;3.85;2.30;;;15.50;56.50;;;;;;6117160;29;20509;-74
2023/03/13 02:26:10;;;;;;;3.00;2.25;;;15.40;56.70;;;;;;6132224;29;20051;-74
2023/03/13 02:29:17;;;;;;;5.95;2.17;;;15.40;56.80;;;;;;6131686;29;20090;-73
2023/03/13 02:32:19;;;;;;;6.65;2.17;;;15.30;56.90;;;;;;6140426;28;20540;-72
2023/03/13 02:35:22;;;;;;;3.92;2.13;;;15.30;57.00;;;;;;6229383;28;20466;-74
2023/03/13 02:38:27;;;;;;;4.93;2.42;;;15.20;57.10;;;;;;6229584;28;20032;-73
2023/03/13 02:41:30;;;;;;;6.13;2.65;;;15.20;57.20;;;;;;6246923;28;20087;-75
2023/03/13 02:44:40;;;;;;;9.02;2.63;;;15.20;57.20;;;;;;6232914;28;20025;-73
2023/03/13 02:47:43;;;;;;;5.85;2.40;;;15.20;57.20;;;;;;6254249;28;20032;-76
2023/03/13 02:50:46;;;;;;;6.03;2.80;;;15.30;57.30;;;;;;6238385;28;20031;-75
2023/03/13 02:53:49;;;;;;;4.50;2.28;;;15.30;57.40;;;;;;6254016;28;20041;-73
2023/03/13 02:56:55;;;;;;;5.20;2.50;;;15.20;57.50;;;;;;6254302;28;20052;-75
2023/03/13 02:59:57;;;;;;;6.05;2.38;;;15.20;57.60;;;;;;6253568;28;20025;-74
2023/03/13 03:02:58;;;;;;;4.68;2.30;;;15.20;57.80;;;;;;6253945;28;20032;-74
2023/03/13 03:05:59;;;;;;;5.35;2.20;;;15.10;57.90;;;;;;6254403;28;20035;-75
2023/03/13 03:09:02;;;;;;;5.50;2.33;;;15.10;58.10;;;;;;6237555;28;20033;-76
2023/03/13 03:12:07;;;;;;;4.00;2.17;;;15.10;58.90;;;;;;6254331;28;20029;-75
2023/03/13 03:15:09;;;;;;;6.30;2.88;;;15.10;58.40;;;;;;6237928;28;20033;-76
2023/03/13 03:18:12;;;;;;;9.00;2.70;;;15.10;58.40;;;;;;6247583;28;20160;-74
2023/03/13 03:21:13;;;;;;;5.85;2.53;;;15.10;58.40;;;;;;6247490;28;20073;-74
2023/03/13 03:24:15;;;;;;;3.20;2.13;;;15.10;58.40;;;;;;6250300;28;20047;-75
2023/03/13 03:27:16;;;;;;;5.22;2.30;;;15.10;58.50;;;;;;6253509;28;20056;-74
2023/03/13 03:30:22;;;;;;;4.18;2.33;;;15.10;58.50;;;;;;6253824;28;20096;-72
2023/03/13 03:33:25;;;;;;;6.32;2.50;;;15.10;58.50;;;;;;6254164;28;20029;-75
2023/03/13 03:36:27;;;;;;;5.00;2.28;;;15.10;58.50;;;;;;6253883;28;20036;-75
2023/03/13 03:39:29;;;;;;;3.90;2.38;;;15.00;58.60;;;;;;6253230;28;20149;-74
2023/03/13 03:42:30;;;;;;;3.05;1.95;;;15.00;58.70;;;;;;6253175;28;20496;-73
2023/03/13 03:45:32;;;;;;;4.50;2.13;;;15.00;58.80;;;;;;6253351;28;20021;-73
2023/03/13 03:48:33;;;;;;;5.78;2.22;;;15.10;58.90;;;;;;6252663;28;20029;-74
2023/03/13 03:51:34;;;;;;;3.92;1.83;;;15.00;59.00;;;;;;6253849;28;20522;-72
2023/03/13 03:54:35;;;;;;;3.75;2.15;;;15.00;59.30;;;;;;6237100;28;20546;-72
2023/03/13 03:57:39;;;;;;;8.43;2.08;;;15.00;59.50;;;;;;6253022;28;20060;-73
2023/03/13 04:00:45;;;;;;;3.20;1.90;;;15.10;59.60;;;;;;6237396;28;20787;-73
2023/03/13 04:03:47;;;;;;;2.67;1.77;;;15.10;59.70;;;;;;6271087;28;20059;-76
2023/03/13 04:06:49;;;;;;;3.28;1.80;;;15.10;59.60;;;;;;6252884;28;20477;-73
2023/03/13 04:09:50;;;;;;;5.78;2.63;;;15.10;59.50;;;;;;6252919;28;20411;-75
2023/03/13 04:13:00;;;;;;;7.55;2.17;;;15.10;59.40;;;;;;6257072;28;20064;-75
2023/03/13 04:16:11;;;;;;;5.13;2.35;;;15.10;59.40;;;;;;6257496;28;20037;-74
2023/03/13 04:19:13;;;;;;;10.98;3.13;;;15.10;59.40;;;;;;6257999;28;20037;-74
2023/03/13 04:22:15;;;;;;;5.32;3.20;;;15.10;59.40;;;;;;6257983;28;20127;-76
2023/03/13 04:25:22;;;;;;;4.65;2.50;;;15.10;59.30;;;;;;6241657;28;20024;-74
2023/03/13 04:28:25;;;;;;;12.50;3.15;;;15.00;59.30;;;;;;6256908;28;20112;-75
2023/03/13 04:31:26;;;;;;;5.03;2.35;;;14.90;59.50;;;;;;6240980;28;20069;-74
2023/03/13 04:34:47;;;;;;;7.18;2.83;;;14.90;59.60;;;;;;6257342;28;20103;-74
2023/03/13 04:38:07;;;;;;;8.43;2.55;;;14.90;59.60;;;;;;6259475;28;20037;-75
2023/03/13 04:41:20;;;;;;;3.25;2.33;;;14.80;59.80;;;;;;6275324;28;20029;-74
2023/03/13 04:44:32;;;;;;;5.38;2.50;;;14.80;59.90;;;;;;6257397;28;20025;-75
2023/03/13 04:48:09;;;;;;;9.90;2.60;;;14.70;59.90;;;;;;6199170;28;20077;-74
2023/03/13 04:51:19;;;;;;;5.13;1.95;;;14.70;60.00;;;;;;6192068;28;20033;-76
2023/03/13 04:54:30;;;;;;;5.10;2.47;;;14.70;60.30;;;;;;6202994;28;20046;-73
2023/03/13 04:57:53;;;;;;;3.65;2.03;;;14.60;60.30;;;;;;6183041;28;20091;-73
2023/03/13 05:01:30;;;;;;;5.85;2.30;;;14.60;60.20;;;;;;6139308;29;20050;-74
2023/03/13 05:04:57;;;;;;;4.10;2.85;;;14.60;60.20;;;;;;6148095;29;20093;-75
2023/03/13 05:08:24;;;;;;;3.13;1.90;;;14.60;60.20;;;;;;6128052;29;20035;-76
2023/03/13 05:11:36;;;;;;;9.05;2.30;;;14.60;60.30;;;;;;6150547;29;20043;-73
2023/03/13 05:14:55;;;;;;;3.70;2.15;;;14.60;60.20;;;;;;6150515;29;20047;-74
2023/03/13 05:18:26;;;;;;;3.55;2.17;;;14.60;60.20;;;;;;6077833;29;20430;-74
2023/03/13 05:21:40;;;;;;;6.55;2.38;;;14.50;60.20;;;;;;6095701;29;20075;-74
2023/03/13 05:25:11;;;;;;;3.22;1.77;;;14.50;60.30;;;;;;6121426;29;20040;-75
2023/03/13 05:28:35;;;;;;;3.08;1.80;;;14.50;60.20;;;;;;6109052;29;20043;-74
2023/03/13 05:32:04;;;;;;;10.55;2.58;;;14.50;60.20;;;;;;6113736;29;20358;-74
2023/03/13 05:35:31;;;;;;;2.88;1.58;;;14.50;60.30;;;;;;6141599;28;20043;-74
2023/03/13 05:38:56;;;;;;;3.50;1.77;;;14.50;60.20;;;;;;6153453;28;20065;-72
2023/03/13 05:42:12;;;;;;;5.03;2.08;;;14.50;60.10;;;;;;6158623;28;20043;-75
2023/03/13 05:45:32;;;;;;;3.25;1.63;;;14.40;59.90;;;;;;6157768;28;20748;-73
2023/03/13 05:48:45;;;;;;;3.85;1.95;;;14.40;59.90;;;;;;6157881;28;20041;-73
2023/03/13 05:52:01;;;;;;;4.90;1.80;;;14.40;59.90;;;;;;6156576;28;20189;-74
2023/03/13 05:55:02;;;;;;;5.28;1.85;;;14.40;60.00;;;;;;6239523;28;20174;-72
2023/03/13 05:58:24;;;;;;;6.13;1.95;;;14.40;60.00;;;;;;6257411;28;20041;-75
2023/03/13 06:01:54;;;;;;;5.97;1.80;;;14.30;60.00;;;;;;6196734;28;20044;-75
2023/03/13 06:05:05;;;;;;;4.03;1.92;;;14.30;60.10;;;;;;6166139;28;20108;-75
2023/03/13 06:08:06;;;;;;;3.45;1.70;;;14.30;60.30;;;;;;6180658;28;20585;-75
2023/03/13 06:11:07;;;;;;;9.00;1.70;;;14.30;60.50;;;;;;6180692;28;20105;-75
2023/03/13 06:14:09;;;;;;;8.07;2.00;;;14.20;60.60;;;;;;6180755;28;20104;-75
2023/03/13 06:17:18;;;;;;;4.15;2.15;;;14.20;60.70;;;;;;6179190;28;20042;-76
2023/03/13 06:20:21;;;;;;;4.38;1.98;;;14.20;61.70;;;;;;6179037;28;20030;-77
2023/03/13 06:23:22;;;;;;;5.13;2.10;;;14.10;60.90;;;;;;6163467;28;20030;-73
2023/03/13 06:26:24;;;;;;;4.72;1.85;;;14.10;61.00;;;;;;6179217;28;20050;-76
2023/03/13 06:29:25;;;;;;;6.03;2.50;;;14.10;61.00;;;;;;6179502;28;20118;-75
2023/03/13 06:32:27;;;;;;;5.85;2.15;;;14.20;61.10;;;;;;6163881;28;20042;-75
2023/03/13 06:35:28;;;;;;;3.85;1.95;;;14.10;60.90;;;;;;6179528;28;20507;-73
2023/03/13 06:38:30;;;;;;;4.40;2.20;;;14.20;61.00;;;;;;6244970;28;20550;-71
2023/03/13 06:41:32;;;;;;;3.03;1.85;;;14.20;61.00;;;;;;6253321;28;20041;-75
2023/03/13 06:44:33;;;;;;;3.33;1.80;;;14.20;60.90;;;;;;6253349;28;20025;-74
2023/03/13 06:47:34;;;;;;;7.20;2.08;;;14.20;60.90;;;;;;6270842;28;20056;-73
2023/03/13 06:50:38;;;;;;;5.38;2.03;;;14.20;60.80;;;;;;6270669;28;20025;-74
2023/03/13 06:53:39;;;;;;;7.63;2.13;;;14.20;60.80;;;;;;6270528;28;20033;-75
2023/03/13 06:56:40;;;;;;;7.03;1.98;;;14.20;60.80;;;;;;6236325;28;20112;-76
2023/03/13 06:59:41;;;;;;;3.80;1.90;;;14.30;60.70;;;;;;6252093;28;20033;-72
2023/03/13 07:02:42;;;;;;;3.40;1.90;;;14.30;60.50;;;;;;6252169;28;20033;-72
2023/03/13 07:05:43;;;;;;;4.30;2.00;;;14.40;60.40;;;;;;6252329;28;20505;-73
2023/03/13 07:08:45;;;;;;;4.18;1.67;;;14.40;60.20;;;;;;6269873;28;20026;-73
2023/03/13 07:11:46;;;;;;;2.05;1.48;;;14.50;60.10;;;;;;6252666;28;20338;-73
2023/03/13 07:14:47;;;;;;;6.07;1.90;;;14.50;60.00;;;;;;6252275;28;20029;-74
2023/03/13 07:17:48;;;;;;;4.10;2.15;;;14.50;60.00;;;;;;6267409;28;20382;-76
2023/03/13 07:20:58;;;;;;;4.13;1.75;;;14.60;59.90;;;;;;6227529;28;20065;-73
2023/03/13 07:23:59;;;;;;;3.80;1.77;;;14.60;59.70;;;;;;6246207;28;20144;-72
2023/03/13 07:27:00;;;;;;;5.57;2.05;;;14.70;59.60;;;;;;6228671;28;20521;-75
2023/03/13 07:30:01;;;;;;;10.07;1.70;;;14.80;59.50;;;;;;6230447;28;20038;-73
2023/03/13 07:33:02;;;;;;;3.67;1.65;;;14.90;59.30;;;;;;6247554;28;20044;-72
2023/03/13 07:36:04;;;;;;;6.32;1.70;;;15.00;58.90;;;;;;6274244;28;20057;-72
2023/03/13 07:39:05;;;;;;;3.10;1.75;;;15.10;58.70;;;;;;6276352;28;20040;-74
2023/03/13 07:42:11;;;;;;;4.80;1.75;;;15.10;58.60;;;;;;6253747;28;20033;-74
2023/03/13 07:45:14;;;;;;;9.80;2.55;;;15.20;58.30;;;;;;6252990;28;20025;-72
2023/03/13 07:48:15;;;;;;;7.50;1.55;;;15.30;58.10;;;;;;6275233;28;20021;-76
2023/03/13 07:51:19;;;;;;;5.18;1.80;;;15.40;57.90;;;;;;6256756;28;20033;-74
2023/03/13 07:54:20;;;;;;;3.08;1.30;;;15.50;57.70;;;;;;6255033;28;20032;-74
2023/03/13 07:57:21;;;;;;;5.13;1.70;;;15.60;57.50;;;;;;6272728;28;20111;-74
2023/03/13 08:00:22;;;;;;;2.85;1.30;;;15.80;57.00;;;;;;6254280;28;20039;-73
2023/03/13 08:03:24;;;;;;;2.42;1.50;;;15.90;56.50;;;;;;6272258;28;20111;-74
2023/03/13 08:06:29;;;;;;;2.70;1.38;;;16.00;56.20;;;;;;6271671;28;20096;-74
2023/03/13 08:09:32;;;;;;;1.90;1.60;;;16.10;56.00;;;;;;6253981;28;20029;-74
2023/03/13 08:12:33;;;;;;;5.03;1.85;;;16.20;56.00;;;;;;6271599;28;20033;-74
2023/03/13 08:15:34;;;;;;;1.77;1.58;;;16.40;55.90;;;;;;6272437;28;20140;-72
2023/03/13 08:18:37;;;;;;;2.72;1.30;;;16.50;55.50;;;;;;6262117;28;20033;-72
2023/03/13 08:21:38;;;;;;;2.25;1.25;;;16.60;55.20;;;;;;6229003;28;20038;-74
2023/03/13 08:24:39;;;;;;;4.70;1.52;;;16.60;54.90;;;;;;6229134;28;20036;-72
2023/03/13 08:27:41;;;;;;;3.10;1.55;;;16.70;55.00;;;;;;6228829;28;20129;-73
2023/03/13 08:30:42;;;;;;;5.53;1.73;;;16.70;54.90;;;;;;6242120;28;20642;-73
2023/03/13 08:33:46;;;;;;;3.70;1.77;;;16.90;54.90;;;;;;6252741;28;20156;-74
2023/03/13 08:36:47;;;;;;;10.93;1.83;;;16.90;54.60;;;;;;6271278;28;20470;-71
2023/03/13 08:39:48;;;;;;;6.45;1.42;;;16.90;54.10;;;;;;6271223;28;20516;-74
2023/03/13 08:42:49;;;;;;;4.07;1.77;;;16.90;54.10;;;;;;6253112;28;20132;-74
2023/03/13 08:45:55;;;;;;;9.70;1.58;;;17.00;54.10;;;;;;6253578;28;20036;-73
2023/03/13 08:48:56;;;;;;;2.78;1.38;;;17.10;53.70;;;;;;6253044;28;20052;-73
2023/03/13 08:51:58;;;;;;;3.13;1.20;;;17.10;53.60;;;;;;6271172;28;20033;-72
2023/03/13 08:54:59;;;;;;;4.47;1.65;;;17.10;53.30;;;;;;6253211;28;20036;-73
2023/03/13 08:58:00;;;;;;;4.18;1.90;;;17.20;53.40;;;;;;6252207;28;20036;-72
2023/03/13 09:01:03;;;;;;;3.13;1.85;;;17.20;53.40;;;;;;6252770;28;20029;-74
2023/03/13 09:04:05;;;;;;;6.88;2.25;;;17.20;53.20;;;;;;6252906;28;20033;-74
2023/03/13 09:07:06;;;;;;;5.80;2.33;;;17.20;53.50;;;;;;6236912;28;20549;-74
2023/03/13 09:10:07;;;;;;;5.72;2.28;;;17.20;54.20;;;;;;6252851;28;20025;-74
2023/03/13 09:13:08;;;;;;;2.83;1.60;;;17.10;53.40;;;;;;6252973;28;20394;-75
2023/03/13 09:16:12;;;;;;;6.28;1.67;;;17.30;53.60;;;;;;6270996;28;20452;-73
2023/03/13 09:19:14;;;;;;;2.78;1.50;;;17.20;53.50;;;;;;6244677;28;20037;-75
2023/03/13 09:22:15;;;;;;;2.40;1.58;;;17.20;53.60;;;;;;6228161;28;20045;-73
2023/03/13 09:25:16;;;;;;;2.92;1.63;;;17.20;53.80;;;;;;6246622;28;20037;-75
2023/03/13 09:28:18;;;;;;;3.85;1.60;;;17.30;53.80;;;;;;6228286;28;20052;-74
2023/03/13 09:31:22;;;;;;;3.95;1.40;;;17.30;53.70;;;;;;6212239;28;20030;-72
2023/03/13 09:34:24;;;;;;;4.25;1.65;;;17.40;53.60;;;;;;6246417;28;20560;-75
2023/03/13 09:37:25;;;;;;;5.20;1.85;;;17.50;53.20;;;;;;6211472;28;20154;-73
2023/03/13 09:40:27;;;;;;;4.80;1.90;;;17.50;53.10;;;;;;6211626;28;20113;-74
2023/03/13 09:43:49;;;;;;;5.43;1.65;;;17.60;53.00;;;;;;6228237;28;20426;-76
2023/03/13 09:47:04;;;;;;;3.08;1.50;;;17.50;52.90;;;;;;6268152;28;20127;-73
2023/03/13 09:50:18;;;;;;;3.47;1.60;;;17.50;52.90;;;;;;6271145;28;20025;-73
2023/03/13 09:53:43;;;;;;;9.07;2.53;;;17.50;53.20;;;;;;6270843;28;20098;-73
2023/03/13 09:57:02;;;;;;;7.18;2.40;;;17.60;53.20;;;;;;6238581;28;20247;-73
2023/03/13 10:00:27;;;;;;;8.02;2.88;;;17.80;53.00;;;;;;6270146;28;20111;-74
2023/03/13 10:03:33;;;;;;;4.63;1.48;;;17.90;52.80;;;;;;6153751;28;20070;-72
2023/03/13 10:06:40;;;;;;;8.27;2.05;;;18.10;52.50;;;;;;6169029;28;20164;-73
2023/03/13 10:09:42;;;;;;;9.30;2.60;;;18.20;52.10;;;;;;6168526;28;20027;-74
2023/03/13 10:12:46;;;;;;;11.93;3.30;;;18.30;51.90;;;;;;6170422;28;20194;-75
2023/03/13 10:15:59;;;;;;;14.07;3.33;;;18.50;51.20;;;;;;6174973;28;20050;-76
2023/03/13 10:19:13;;;;;;;7.55;2.03;;;18.50;50.20;;;;;;6178542;28;20047;-73
2023/03/13 10:22:21;;;;;;;9.30;1.77;;;18.50;49.60;;;;;;6152844;28;20113;-73
2023/03/13 10:25:34;;;;;;;12.00;1.80;;;18.60;49.60;;;;;;6169160;28;20144;-75
2023/03/13 10:28:35;;;;;;;3.78;1.70;;;18.70;49.60;;;;;;6136081;28;20035;-75
2023/03/13 10:31:38;;;;;;;2.53;1.48;;;18.80;49.20;;;;;;6184781;28;20069;-73
2023/03/13 10:34:59;;;;;;;1.65;1.10;;;18.90;48.80;;;;;;6168132;28;20043;-73
2023/03/13 10:38:05;;;;;;;8.10;2.58;;;19.10;48.80;;;;;;6152347;28;20042;-75
2023/03/13 10:41:21;;;;;;;5.78;1.88;;;19.50;48.20;;;;;;6193137;28;20131;-72
2023/03/13 10:44:31;;;;;;;5.80;1.23;;;20.00;47.20;;;;;;6245142;28;20053;-74
2023/03/13 10:47:33;;;;;;;2.05;1.10;;;20.40;46.20;;;;;;6250090;28;20063;-72
2023/03/13 10:50:34;;;;;;;7.13;1.25;;;20.70;45.90;;;;;;6233625;28;20040;-74
2023/03/13 10:53:36;;;;;;;8.93;2.38;;;21.10;45.50;;;;;;6268044;28;20025;-73
2023/03/13 10:56:37;;;;;;;2.90;1.52;;;21.50;44.80;;;;;;6267976;28;20036;-75
2023/03/13 10:59:50;;;;;;;2.90;1.10;;;21.80;44.30;;;;;;6249544;28;20335;-74
2023/03/13 11:02:53;;;;;;;1.92;1.20;;;22.00;43.50;;;;;;6268289;28;20233;-73
2023/03/13 11:05:55;;;;;;;7.43;1.83;;;22.30;43.20;;;;;;6250278;28;20059;-73
2023/03/13 11:09:25;;;;;;;9.50;2.40;;;22.60;42.90;;;;;;6249829;28;20032;-75
2023/03/13 11:12:27;;;;;;;2.70;1.55;;;23.00;42.60;;;;;;6248354;28;20064;-77
2023/03/13 11:16:03;;;;;;;4.38;1.85;;;23.30;41.80;;;;;;6268203;28;20505;-74
2023/03/13 11:19:19;;;;;;;1.48;0.55;;;23.60;41.50;;;;;;6245660;28;20118;-75
2023/03/13 11:22:38;;;;;;;4.05;1.17;;;24.10;41.00;;;;;;6273478;28;20029;-75
2023/03/13 11:25:57;;;;;;;6.10;1.33;;;24.50;40.40;;;;;;6255135;28;20118;-76
2023/03/13 11:29:08;;;;;;;1.73;1.00;;;24.90;39.70;;;;;;6274853;28;20505;-74
2023/03/13 11:32:44;;;;;;;3.78;1.13;;;25.00;38.90;;;;;;6274873;28;20029;-74
2023/03/13 11:35:57;;;;;;;10.00;1.15;;;25.20;38.60;;;;;;6243066;28;20362;-74
2023/03/13 11:39:02;;;;;;;3.30;1.00;;;25.40;38.10;;;;;;6273610;28;20033;-75
2023/03/13 11:42:37;;;;;;;3.78;1.30;;;25.60;37.60;;;;;;6275239;28;20094;-72
2023/03/13 11:45:56;;;;;;;4.07;1.13;;;25.90;37.00;;;;;;6255906;28;20069;-76
2023/03/13 11:49:19;;;;;;;17.77;1.70;;;26.00;37.00;;;;;;6229964;28;20088;-74
2023/03/13 11:52:54;;;;;;;1.45;0.70;;;26.10;36.80;;;;;;6230939;28;20136;-76
2023/03/13 11:55:58;;;;;;;3.50;0.82;;;26.20;36.40;;;;;;6231659;28;20458;-74
2023/03/13 11:59:18;;;;;;;4.65;1.17;;;26.30;35.90;;;;;;6248464;28;20443;-72
2023/03/13 12:02:19;;;;;;;3.15;1.10;;;26.30;35.70;;;;;;6249034;28;20084;-74
2023/03/13 12:05:22;;;;;;;7.90;1.45;;;26.40;35.60;;;;;;6248134;28;20041;-75
2023/03/13 12:08:54;;;;;;;3.63;1.58;;;26.80;35.10;;;;;;6247192;28;20399;-74
2023/03/13 12:12:03;;;;;;;7.45;1.30;;;27.20;34.40;;;;;;6243559;28;20048;-76
2023/03/13 12:15:14;;;;;;;0.73;0.60;;;27.80;33.70;;;;;;6254900;28;20323;-73
2023/03/13 12:18:21;;;;;;;9.38;1.00;;;28.50;33.00;;;;;;6246041;28;20060;-74
2023/03/13 12:21:28;;;;;;;2.47;0.95;;;29.40;31.70;;;;;;6247392;28;20066;-74
2023/03/13 12:24:35;;;;;;;2.72;0.98;;;30.10;30.50;;;;;;6246776;28;20103;-75
2023/03/13 12:27:41;;;;;;;1.95;1.05;;;30.80;29.80;;;;;;6247165;28;20022;-73
2023/03/13 12:30:51;;;;;;;1.85;0.90;;;31.40;28.90;;;;;;6247118;28;20063;-75
2023/03/13 12:34:14;;;;;;;2.03;1.00;;;32.10;28.00;;;;;;6246862;28;20033;-74
2023/03/13 12:37:51;;;;;;;2.10;0.90;;;32.90;27.30;;;;;;6229216;28;20029;-75
2023/03/13 12:41:14;;;;;;;7.80;0.60;;;33.80;26.50;;;;;;6229891;28;20065;-72
2023/03/13 12:44:18;;;;;;;4.78;1.27;;;34.70;25.50;;;;;;6212306;28;20136;-73
2023/03/13 12:47:31;;;;;;;2.53;0.40;;;35.30;24.70;;;;;;6228448;28;20116;-75
2023/03/13 12:50:53;;;;;;;0.93;0.43;;;35.70;22.70;;;;;;6228280;28;20113;-76
2023/03/13 12:54:12;;;;;;;0.30;0.20;;;35.90;22.40;;;;;;6246488;28;20105;-75
2023/03/13 12:57:36;;;;;;;0.22;0.22;;;36.00;21.90;;;;;;6227510;28;20248;-74
2023/03/13 13:00:41;;;;;;;0.38;0.05;;;36.00;20.80;;;;;;6246260;28;20121;-76
2023/03/13 13:03:51;;;;;;;2.72;0.43;;;35.90;21.20;;;;;;6228827;28;20026;-75
2023/03/13 13:07:06;;;;;;;0.55;0.20;;;35.70;20.80;;;;;;6236442;28;20125;-77
2023/03/13 13:10:10;;;;;;;1.17;0.43;;;35.40;20.40;;;;;;6265804;28;20034;-76
2023/03/13 13:13:14;;;;;;;1.00;0.25;;;34.60;20.90;;;;;;6271934;28;20171;-76
2023/03/13 13:16:20;;;;;;;0.15;0.15;;;33.60;21.00;;;;;;6271339;28;20402;-76
2023/03/13 13:19:24;;;;;;;3.58;0.20;;;32.80;21.50;;;;;;6244050;28;20101;-74
2023/03/13 13:22:37;;;;;;;0.22;0.20;;;32.10;22.10;;;;;;6243471;28;20036;-74
2023/03/13 13:25:38;;;;;;;0.57;0.30;;;31.60;22.90;;;;;;6245288;28;20379;-75
2023/03/13 13:28:42;;;;;;;1.27;0.32;;;31.20;23.00;;;;;;6227185;28;20148;-77
2023/03/13 13:31:46;;;;;;;0.60;0.35;;;30.90;23.20;;;;;;6227412;28;20038;-77
2023/03/13 13:35:22;;;;;;;1.00;0.40;;;30.60;23.60;;;;;;6245443;28;20038;-75
2023/03/13 13:38:35;;;;;;;1.63;0.35;;;30.40;23.80;;;;;;6234019;28;20053;-75
2023/03/13 13:41:36;;;;;;;1.27;0.30;;;30.20;24.10;;;;;;6255248;28;20025;-73
2023/03/13 13:45:14;;;;;;;1.30;0.95;;;30.00;23.90;;;;;;6270326;28;20583;-77
2023/03/13 13:48:31;;;;;;;0.68;0.50;;;29.80;24.20;;;;;;6251957;28;20028;-75
2023/03/13 13:51:39;;;;;;;0.20;0.20;;;29.60;24.40;;;;;;6251424;28;20032;-73
2023/03/13 13:54:46;;;;;;;;;;;29.50;24.30;;;;;;6252110;28;20040;-73
2023/03/13 13:57:48;;;;;;;0.88;0.30;;;29.40;24.40;;;;;;6269257;28;19915;-73
2023/03/13 14:00:57;;;;;;;1.45;0.43;;;29.30;24.40;;;;;;6251228;28;20104;-73
2023/03/13 14:04:27;;;;;;;0.20;0.20;;;29.10;24.60;;;;;;6269894;28;20116;-74
2023/03/13 14:07:50;;;;;;;0.50;0.50;;;29.00;24.70;;;;;;6250773;28;20025;-73
2023/03/13 14:11:13;;;;;;;0.20;0.20;;;29.00;24.80;;;;;;6268669;28;20033;-73
2023/03/13 14:14:18;;;;;;;1.63;0.40;;;28.90;25.00;;;;;;6269149;28;20419;-74
2023/03/13 14:17:20;;;;;;;0.60;0.30;;;28.90;24.90;;;;;;6250372;28;20032;-74
2023/03/13 14:20:34;;;;;;;0.77;0.50;;;28.80;25.10;;;;;;6242117;28;20111;-74
2023/03/13 14:23:43;;;;;;;2.53;1.27;;;29.00;25.40;;;;;;6244944;28;20044;-75
2023/03/13 14:26:45;;;;;;;3.50;0.60;;;29.00;25.60;;;;;;6227006;28;20040;-76
2023/03/13 14:30:04;;;;;;;0.80;0.60;;;28.90;25.60;;;;;;6243879;28;20037;-74
2023/03/13 14:33:05;;;;;;;0.38;0.30;;;28.90;25.80;;;;;;6226168;28;20029;-74
2023/03/13 14:36:06;;;;;;;0.95;0.40;;;28.80;25.80;;;;;;6244034;28;20026;-74
2023/03/13 14:39:18;;;;;;;0.30;0.22;;;28.80;26.00;;;;;;6264063;28;20192;-74
2023/03/13 14:42:19;;;;;;;0.82;0.30;;;28.70;25.90;;;;;;6250164;28;20492;-75
2023/03/13 14:45:32;;;;;;;2.15;0.30;;;28.60;26.00;;;;;;6268792;28;20025;-74
2023/03/13 14:48:33;;;;;;;0.40;0.40;;;28.50;25.90;;;;;;6250055;28;20312;-73
2023/03/13 14:51:39;;;;;;;0.40;0.30;;;28.40;26.10;;;;;;6250396;28;20103;-72
2023/03/13 14:55:03;;;;;;;0.20;0.20;;;28.40;26.20;;;;;;6268212;28;20504;-76
2023/03/13 14:58:26;;;;;;;1.10;0.50;;;28.30;26.20;;;;;;6267646;28;20448;-75
2023/03/13 15:01:30;;;;;;;1.88;0.77;;;28.20;26.50;;;;;;6249668;28;20060;-75
2023/03/13 15:05:27;;;;;;;0.32;0.30;;;28.10;26.60;;;;;;6267905;28;20106;-73
2023/03/13 15:08:29;;;;;;;2.10;0.45;;;28.10;26.60;;;;;;6150884;28;20039;-74
2023/03/13 15:11:33;;;;;;;0.95;0.30;;;28.10;26.70;;;;;;6167682;28;20034;-73
2023/03/13 15:14:42;;;;;;;0.40;0.40;;;28.00;26.70;;;;;;6167809;28;20126;-72
2023/03/13 15:17:43;;;;;;;0.20;0.20;;;28.00;26.90;;;;;;6165940;28;20450;-73
2023/03/13 15:20:53;;;;;;;7.38;0.93;;;27.90;27.00;;;;;;6144042;29;20110;-74
2023/03/13 15:24:14;;;;;;;4.50;1.10;;;27.80;27.20;;;;;;6127952;29;20051;-72
2023/03/13 15:27:20;;;;;;;1.25;1.00;;;27.70;27.40;;;;;;6144062;29;20038;-72
2023/03/13 15:30:22;;;;;;;2.30;0.60;;;27.60;27.60;;;;;;6144247;29;20504;-73
2023/03/13 15:33:27;;;;;;;0.63;0.60;;;27.60;27.70;;;;;;6147654;28;20093;-73
2023/03/13 15:36:30;;;;;;;0.85;0.50;;;27.50;27.90;;;;;;6168018;28;20053;-75
2023/03/13 15:39:31;;;;;;;1.40;0.60;;;27.40;28.00;;;;;;6151974;28;20042;-74
2023/03/13 15:42:32;;;;;;;0.40;0.32;;;27.30;28.10;;;;;;6224538;28;20041;-74
2023/03/13 15:45:39;;;;;;;2.35;0.60;;;27.30;28.30;;;;;;6236959;28;20155;-73
2023/03/13 15:48:40;;;;;;;0.35;0.32;;;27.20;28.50;;;;;;6249524;28;20052;-74
2023/03/13 15:51:42;;;;;;;0.30;0.30;;;27.10;28.60;;;;;;6233346;28;20567;-74
2023/03/13 15:54:44;;;;;;;0.98;0.40;;;27.00;28.70;;;;;;6267984;28;20469;-74
2023/03/13 15:57:48;;;;;;;0.75;0.40;;;27.00;28.80;;;;;;6250427;28;20037;-73
2023/03/13 16:00:49;;;;;;;0.70;0.38;;;27.00;28.90;;;;;;6236383;28;20029;-75
2023/03/13 16:03:50;;;;;;;0.73;0.40;;;26.90;29.10;;;;;;6226909;28;20048;-74
2023/03/13 16:06:51;;;;;;;0.65;0.30;;;26.90;29.20;;;;;;6228115;28;20105;-74
2023/03/13 16:09:52;;;;;;;0.40;0.40;;;26.90;29.30;;;;;;6248240;28;20025;-73
2023/03/13 16:12:54;;;;;;;6.03;0.50;;;26.80;29.40;;;;;;6248822;28;20076;-72
2023/03/13 16:15:55;;;;;;;1.48;0.50;;;26.80;29.50;;;;;;6237181;28;20037;-74
2023/03/13 16:18:58;;;;;;;0.43;0.30;;;26.70;29.60;;;;;;6276631;28;20056;-74